sensor_id;sensor_type;location;lat;lon;timestamp;P1;durP1;ratioP1;P2;durP2;ratioP2
44862;SDS011;30597;49.628;10.850;2022-09-12T00:01:20;3.70;;;3.40;;
44862;SDS011;30597;49.628;10.850;2022-09-12T00:03:48;3.23;;;3.03;;
44862;SDS011;30597;49.628;10.850;2022-09-12T00:06:21;3.80;;;3.50;;
44862;SDS011;30597;49.628;10.850;2022-09-12T00:08:48;4.83;;;3.40;;
44862;SDS011;30597;49.628;10.850;2022-09-12T00:11:14;3.43;;;3.10;;
44862;SDS011;30597;49.628;10.850;2022-09-12T00:13:40;3.43;;;3.10;;
44862;SDS011;30597;49.628;10.850;2022-09-12T00:16:06;3.40;;;3.10;;
44862;SDS011;30597;49.628;10.850;2022-09-12T00:18:37;3.50;;;3.20;;
44862;SDS011;30597;49.628;10.850;2022-09-12T00:21:03;3.80;;;3.00;;
44862;SDS011;30597;49.628;10.850;2022-09-12T00:23:30;3.70;;;2.87;;
44862;SDS011;30597;49.628;10.850;2022-09-12T00:25:56;3.90;;;2.83;;
44862;SDS011;30597;49.628;10.850;2022-09-12T00:28:22;3.63;;;3.33;;
44862;SDS011;30597;49.628;10.850;2022-09-12T00:30:47;2.90;;;2.70;;
44862;SDS011;30597;49.628;10.850;2022-09-12T00:33:14;3.30;;;3.00;;
44862;SDS011;30597;49.628;10.850;2022-09-12T00:35:44;3.40;;;3.10;;
44862;SDS011;30597;49.628;10.850;2022-09-12T00:38:17;4.30;;;3.83;;
44862;SDS011;30597;49.628;10.850;2022-09-12T00:40:43;4.77;;;2.73;;
44862;SDS011;30597;49.628;10.850;2022-09-12T00:43:11;3.13;;;2.83;;
44862;SDS011;30597;49.628;10.850;2022-09-12T00:45:56;3.00;;;2.70;;
44862;SDS011;30597;49.628;10.850;2022-09-12T00:48:25;4.23;;;3.43;;
44862;SDS011;30597;49.628;10.850;2022-09-12T00:50:59;3.33;;;3.13;;
44862;SDS011;30597;49.628;10.850;2022-09-12T00:53:26;3.77;;;3.10;;
44862;SDS011;30597;49.628;10.850;2022-09-12T00:55:51;3.43;;;2.90;;
44862;SDS011;30597;49.628;10.850;2022-09-12T00:58:23;3.20;;;2.90;;
44862;SDS011;30597;49.628;10.850;2022-09-12T01:00:54;6.17;;;3.20;;
44862;SDS011;30597;49.628;10.850;2022-09-12T01:03:21;3.23;;;3.00;;
44862;SDS011;30597;49.628;10.850;2022-09-12T01:05:52;2.80;;;2.60;;
44862;SDS011;30597;49.628;10.850;2022-09-12T01:08:29;3.20;;;2.90;;
44862;SDS011;30597;49.628;10.850;2022-09-12T01:10:57;3.33;;;2.80;;
44862;SDS011;30597;49.628;10.850;2022-09-12T01:13:23;3.07;;;2.87;;
44862;SDS011;30597;49.628;10.850;2022-09-12T01:15:49;4.27;;;2.93;;
44862;SDS011;30597;49.628;10.850;2022-09-12T01:18:22;3.33;;;2.63;;
44862;SDS011;30597;49.628;10.850;2022-09-12T01:21:03;3.20;;;2.90;;
44862;SDS011;30597;49.628;10.850;2022-09-12T01:29:25;3.10;;;2.63;;
44862;SDS011;30597;49.628;10.850;2022-09-12T01:32:09;3.23;;;2.93;;
44862;SDS011;30597;49.628;10.850;2022-09-12T01:34:49;3.10;;;2.73;;
44862;SDS011;30597;49.628;10.850;2022-09-12T01:37:25;3.10;;;2.80;;
44862;SDS011;30597;49.628;10.850;2022-09-12T01:47:55;3.00;;;2.50;;
44862;SDS011;30597;49.628;10.850;2022-09-12T01:50:27;3.20;;;2.80;;
44862;SDS011;30597;49.628;10.850;2022-09-12T01:53:02;3.73;;;2.70;;
44862;SDS011;30597;49.628;10.850;2022-09-12T01:55:43;3.47;;;3.17;;
44862;SDS011;30597;49.628;10.850;2022-09-12T01:58:20;2.20;;;2.00;;
44862;SDS011;30597;49.628;10.850;2022-09-12T02:01:08;2.77;;;2.57;;
44862;SDS011;30597;49.628;10.850;2022-09-12T02:04:03;2.53;;;2.33;;
44862;SDS011;30597;49.628;10.850;2022-09-12T02:06:26;2.73;;;2.53;;
44862;SDS011;30597;49.628;10.850;2022-09-12T02:08:59;2.90;;;2.70;;
44862;SDS011;30597;49.628;10.850;2022-09-12T02:11:40;4.30;;;3.00;;
44862;SDS011;30597;49.628;10.850;2022-09-12T02:14:19;3.93;;;3.00;;
44862;SDS011;30597;49.628;10.850;2022-09-12T02:17:02;2.77;;;2.57;;
44862;SDS011;30597;49.628;10.850;2022-09-12T02:19:36;2.83;;;2.60;;
44862;SDS011;30597;49.628;10.850;2022-09-12T02:22:07;3.20;;;2.70;;
44862;SDS011;30597;49.628;10.850;2022-09-12T02:24:39;3.37;;;2.87;;
44862;SDS011;30597;49.628;10.850;2022-09-12T02:27:09;2.37;;;2.17;;
44862;SDS011;30597;49.628;10.850;2022-09-12T02:29:39;2.73;;;2.50;;
44862;SDS011;30597;49.628;10.850;2022-09-12T02:32:08;2.90;;;2.60;;
44862;SDS011;30597;49.628;10.850;2022-09-12T02:34:56;2.70;;;2.50;;
44862;SDS011;30597;49.628;10.850;2022-09-12T02:40:20;3.90;;;2.37;;
44862;SDS011;30597;49.628;10.850;2022-09-12T02:42:47;2.50;;;2.13;;
44862;SDS011;30597;49.628;10.850;2022-09-12T02:45:13;2.80;;;2.60;;
44862;SDS011;30597;49.628;10.850;2022-09-12T02:47:57;2.30;;;2.20;;
44862;SDS011;30597;49.628;10.850;2022-09-12T02:50:43;3.07;;;2.77;;
44862;SDS011;30597;49.628;10.850;2022-09-12T02:53:09;2.40;;;2.20;;
44862;SDS011;30597;49.628;10.850;2022-09-12T02:55:36;3.20;;;3.00;;
44862;SDS011;30597;49.628;10.850;2022-09-12T02:58:06;1.90;;;1.80;;
44862;SDS011;30597;49.628;10.850;2022-09-12T03:00:36;2.93;;;2.73;;
44862;SDS011;30597;49.628;10.850;2022-09-12T03:03:19;3.10;;;2.80;;
44862;SDS011;30597;49.628;10.850;2022-09-12T03:06:11;4.03;;;2.30;;
44862;SDS011;30597;49.628;10.850;2022-09-12T03:08:50;2.30;;;2.10;;
44862;SDS011;30597;49.628;10.850;2022-09-12T03:11:29;2.23;;;1.93;;
44862;SDS011;30597;49.628;10.850;2022-09-12T03:14:29;2.27;;;2.07;;
44862;SDS011;30597;49.628;10.850;2022-09-12T03:20:02;2.63;;;2.43;;
44862;SDS011;30597;49.628;10.850;2022-09-12T03:25:41;2.47;;;2.27;;
44862;SDS011;30597;49.628;10.850;2022-09-12T03:28:13;2.73;;;2.53;;
44862;SDS011;30597;49.628;10.850;2022-09-12T03:30:44;2.40;;;2.20;;
44862;SDS011;30597;49.628;10.850;2022-09-12T03:33:12;2.17;;;1.97;;
44862;SDS011;30597;49.628;10.850;2022-09-12T03:35:43;2.53;;;2.40;;
44862;SDS011;30597;49.628;10.850;2022-09-12T03:38:10;2.40;;;2.20;;
44862;SDS011;30597;49.628;10.850;2022-09-12T03:40:36;2.10;;;2.00;;
44862;SDS011;30597;49.628;10.850;2022-09-12T03:43:03;2.10;;;1.90;;
44862;SDS011;30597;49.628;10.850;2022-09-12T03:45:29;2.27;;;2.10;;
44862;SDS011;30597;49.628;10.850;2022-09-12T03:47:55;3.20;;;1.80;;
44862;SDS011;30597;49.628;10.850;2022-09-12T03:50:21;2.47;;;2.03;;
44862;SDS011;30597;49.628;10.850;2022-09-12T03:52:46;2.80;;;2.40;;
44862;SDS011;30597;49.628;10.850;2022-09-12T03:55:12;2.03;;;1.93;;
44862;SDS011;30597;49.628;10.850;2022-09-12T03:57:38;2.77;;;2.57;;
44862;SDS011;30597;49.628;10.850;2022-09-12T04:00:05;2.50;;;2.30;;
44862;SDS011;30597;49.628;10.850;2022-09-12T04:02:32;2.40;;;2.20;;
44862;SDS011;30597;49.628;10.850;2022-09-12T04:04:58;2.13;;;1.93;;
44862;SDS011;30597;49.628;10.850;2022-09-12T04:07:24;2.60;;;2.40;;
44862;SDS011;30597;49.628;10.850;2022-09-12T04:09:50;2.27;;;2.07;;
44862;SDS011;30597;49.628;10.850;2022-09-12T04:12:16;2.20;;;2.00;;
44862;SDS011;30597;49.628;10.850;2022-09-12T04:14:41;2.67;;;2.30;;
44862;SDS011;30597;49.628;10.850;2022-09-12T04:17:07;2.17;;;2.07;;
44862;SDS011;30597;49.628;10.850;2022-09-12T04:19:33;2.00;;;1.90;;
44862;SDS011;30597;49.628;10.850;2022-09-12T04:21:58;2.33;;;2.13;;
44862;SDS011;30597;49.628;10.850;2022-09-12T04:24:24;3.60;;;2.17;;
44862;SDS011;30597;49.628;10.850;2022-09-12T04:26:49;2.50;;;2.30;;
44862;SDS011;30597;49.628;10.850;2022-09-12T04:29:15;2.30;;;2.10;;
44862;SDS011;30597;49.628;10.850;2022-09-12T04:31:41;2.30;;;2.10;;
44862;SDS011;30597;49.628;10.850;2022-09-12T04:34:07;2.23;;;2.03;;
44862;SDS011;30597;49.628;10.850;2022-09-12T04:36:33;2.50;;;2.30;;
44862;SDS011;30597;49.628;10.850;2022-09-12T04:38:59;2.63;;;2.17;;
44862;SDS011;30597;49.628;10.850;2022-09-12T04:41:29;2.17;;;2.03;;
44862;SDS011;30597;49.628;10.850;2022-09-12T04:43:57;2.50;;;2.30;;
44862;SDS011;30597;49.628;10.850;2022-09-12T04:46:28;1.93;;;1.83;;
44862;SDS011;30597;49.628;10.850;2022-09-12T04:48:55;2.63;;;2.33;;
44862;SDS011;30597;49.628;10.850;2022-09-12T04:51:22;2.17;;;2.07;;
44862;SDS011;30597;49.628;10.850;2022-09-12T04:53:52;2.97;;;2.67;;
44862;SDS011;30597;49.628;10.850;2022-09-12T04:56:20;3.43;;;1.60;;
44862;SDS011;30597;49.628;10.850;2022-09-12T04:58:45;2.30;;;2.10;;
44862;SDS011;30597;49.628;10.850;2022-09-12T05:01:14;2.33;;;2.10;;
44862;SDS011;30597;49.628;10.850;2022-09-12T05:03:42;2.67;;;2.47;;
44862;SDS011;30597;49.628;10.850;2022-09-12T05:06:12;2.50;;;2.30;;
44862;SDS011;30597;49.628;10.850;2022-09-12T05:08:39;3.13;;;2.93;;
44862;SDS011;30597;49.628;10.850;2022-09-12T05:11:39;3.80;;;2.73;;
44862;SDS011;30597;49.628;10.850;2022-09-12T05:14:01;3.53;;;3.20;;
44862;SDS011;30597;49.628;10.850;2022-09-12T05:16:27;4.23;;;3.93;;
44862;SDS011;30597;49.628;10.850;2022-09-12T05:18:55;3.80;;;3.50;;
44862;SDS011;30597;49.628;10.850;2022-09-12T05:21:21;3.90;;;3.60;;
44862;SDS011;30597;49.628;10.850;2022-09-12T05:23:55;5.17;;;4.67;;
44862;SDS011;30597;49.628;10.850;2022-09-12T05:26:22;5.20;;;4.80;;
44862;SDS011;30597;49.628;10.850;2022-09-12T05:28:48;11.50;;;10.47;;
44862;SDS011;30597;49.628;10.850;2022-09-12T05:31:19;10.57;;;9.57;;
44862;SDS011;30597;49.628;10.850;2022-09-12T05:33:47;13.63;;;12.40;;
44862;SDS011;30597;49.628;10.850;2022-09-12T05:36:15;10.77;;;9.23;;
44862;SDS011;30597;49.628;10.850;2022-09-12T05:38:42;10.37;;;9.40;;
44862;SDS011;30597;49.628;10.850;2022-09-12T05:41:12;11.13;;;10.03;;
44862;SDS011;30597;49.628;10.850;2022-09-12T05:43:40;8.23;;;7.53;;
44862;SDS011;30597;49.628;10.850;2022-09-12T05:46:08;8.57;;;7.77;;
44862;SDS011;30597;49.628;10.850;2022-09-12T05:48:43;8.73;;;8.03;;
44862;SDS011;30597;49.628;10.850;2022-09-12T05:51:14;8.13;;;7.43;;
44862;SDS011;30597;49.628;10.850;2022-09-12T05:53:43;8.07;;;7.40;;
44862;SDS011;30597;49.628;10.850;2022-09-12T05:56:14;8.03;;;7.23;;
44862;SDS011;30597;49.628;10.850;2022-09-12T05:58:42;7.80;;;7.10;;
44862;SDS011;30597;49.628;10.850;2022-09-12T06:01:14;8.03;;;7.33;;
44862;SDS011;30597;49.628;10.850;2022-09-12T06:03:41;7.10;;;6.50;;
44862;SDS011;30597;49.628;10.850;2022-09-12T06:06:09;9.03;;;8.23;;
44862;SDS011;30597;49.628;10.850;2022-09-12T06:08:42;8.33;;;7.63;;
44862;SDS011;30597;49.628;10.850;2022-09-12T06:11:10;10.23;;;9.23;;
44862;SDS011;30597;49.628;10.850;2022-09-12T06:13:39;9.67;;;8.67;;
44862;SDS011;30597;49.628;10.850;2022-09-12T06:16:07;8.23;;;7.43;;
44862;SDS011;30597;49.628;10.850;2022-09-12T06:18:34;8.73;;;7.87;;
44862;SDS011;30597;49.628;10.850;2022-09-12T06:21:10;11.83;;;7.47;;
44862;SDS011;30597;49.628;10.850;2022-09-12T06:23:37;8.00;;;7.20;;
44862;SDS011;30597;49.628;10.850;2022-09-12T06:26:04;6.73;;;5.57;;
44862;SDS011;30597;49.628;10.850;2022-09-12T06:28:31;6.97;;;6.23;;
44862;SDS011;30597;49.628;10.850;2022-09-12T06:31:02;7.47;;;6.77;;
44862;SDS011;30597;49.628;10.850;2022-09-12T06:33:32;6.13;;;5.53;;
44862;SDS011;30597;49.628;10.850;2022-09-12T06:36:05;6.77;;;5.87;;
44862;SDS011;30597;49.628;10.850;2022-09-12T06:38:31;6.77;;;6.00;;
44862;SDS011;30597;49.628;10.850;2022-09-12T06:40:58;5.87;;;5.37;;
44862;SDS011;30597;49.628;10.850;2022-09-12T06:43:24;5.83;;;5.33;;
44862;SDS011;30597;49.628;10.850;2022-09-12T06:45:50;5.77;;;5.27;;
44862;SDS011;30597;49.628;10.850;2022-09-12T06:48:16;6.07;;;5.50;;
44862;SDS011;30597;49.628;10.850;2022-09-12T06:50:41;6.90;;;6.03;;
44862;SDS011;30597;49.628;10.850;2022-09-12T06:53:07;5.63;;;4.80;;
44862;SDS011;30597;49.628;10.850;2022-09-12T06:55:33;5.60;;;5.10;;
44862;SDS011;30597;49.628;10.850;2022-09-12T06:57:59;5.27;;;4.87;;
44862;SDS011;30597;49.628;10.850;2022-09-12T07:00:25;5.73;;;5.30;;
44862;SDS011;30597;49.628;10.850;2022-09-12T07:02:54;6.20;;;5.60;;
44862;SDS011;30597;49.628;10.850;2022-09-12T07:05:20;6.33;;;5.73;;
44862;SDS011;30597;49.628;10.850;2022-09-12T07:07:46;5.77;;;5.27;;
44862;SDS011;30597;49.628;10.850;2022-09-12T07:10:12;5.40;;;4.93;;
44862;SDS011;30597;49.628;10.850;2022-09-12T07:12:38;6.30;;;5.70;;
44862;SDS011;30597;49.628;10.850;2022-09-12T07:15:04;5.30;;;4.80;;
44862;SDS011;30597;49.628;10.850;2022-09-12T07:17:30;5.30;;;4.80;;
44862;SDS011;30597;49.628;10.850;2022-09-12T07:19:56;5.03;;;4.63;;
44862;SDS011;30597;49.628;10.850;2022-09-12T07:22:21;5.37;;;4.87;;
44862;SDS011;30597;49.628;10.850;2022-09-12T07:24:47;5.37;;;4.87;;
44862;SDS011;30597;49.628;10.850;2022-09-12T07:27:13;5.83;;;5.33;;
44862;SDS011;30597;49.628;10.850;2022-09-12T07:29:38;5.10;;;4.70;;
44862;SDS011;30597;49.628;10.850;2022-09-12T07:32:05;6.60;;;4.73;;
44862;SDS011;30597;49.628;10.850;2022-09-12T07:34:31;5.73;;;5.23;;
44862;SDS011;30597;49.628;10.850;2022-09-12T07:36:56;5.40;;;5.00;;
44862;SDS011;30597;49.628;10.850;2022-09-12T07:39:22;4.90;;;4.50;;
44862;SDS011;30597;49.628;10.850;2022-09-12T07:41:48;6.07;;;5.47;;
44862;SDS011;30597;49.628;10.850;2022-09-12T07:44:13;5.87;;;5.37;;
44862;SDS011;30597;49.628;10.850;2022-09-12T07:46:39;5.50;;;5.00;;
44862;SDS011;30597;49.628;10.850;2022-09-12T07:49:04;5.17;;;4.73;;
44862;SDS011;30597;49.628;10.850;2022-09-12T07:51:30;4.70;;;4.40;;
44862;SDS011;30597;49.628;10.850;2022-09-12T07:53:56;5.20;;;4.80;;
44862;SDS011;30597;49.628;10.850;2022-09-12T07:56:22;4.63;;;4.23;;
44862;SDS011;30597;49.628;10.850;2022-09-12T07:58:48;4.57;;;4.20;;
44862;SDS011;30597;49.628;10.850;2022-09-12T08:01:14;5.30;;;4.90;;
44862;SDS011;30597;49.628;10.850;2022-09-12T08:03:43;4.70;;;4.30;;
44862;SDS011;30597;49.628;10.850;2022-09-12T08:06:14;5.50;;;5.00;;
44862;SDS011;30597;49.628;10.850;2022-09-12T08:08:41;4.40;;;4.03;;
44862;SDS011;30597;49.628;10.850;2022-09-12T08:11:11;4.53;;;4.20;;
44862;SDS011;30597;49.628;10.850;2022-09-12T08:13:38;4.40;;;4.10;;
44862;SDS011;30597;49.628;10.850;2022-09-12T08:16:09;4.90;;;4.50;;
44862;SDS011;30597;49.628;10.850;2022-09-12T08:18:37;4.87;;;4.47;;
44862;SDS011;30597;49.628;10.850;2022-09-12T08:21:05;4.50;;;4.20;;
44862;SDS011;30597;49.628;10.850;2022-09-12T08:23:32;5.93;;;5.43;;
44862;SDS011;30597;49.628;10.850;2022-09-12T08:25:59;5.20;;;4.70;;
44862;SDS011;30597;49.628;10.850;2022-09-12T08:28:28;4.13;;;3.83;;
44862;SDS011;30597;49.628;10.850;2022-09-12T08:30:59;4.00;;;3.70;;
44862;SDS011;30597;49.628;10.850;2022-09-12T08:33:26;5.40;;;4.90;;
44862;SDS011;30597;49.628;10.850;2022-09-12T08:36:01;4.63;;;4.20;;
44862;SDS011;30597;49.628;10.850;2022-09-12T08:38:47;4.37;;;3.97;;
44862;SDS011;30597;49.628;10.850;2022-09-12T08:49:32;4.77;;;4.27;;
44862;SDS011;30597;49.628;10.850;2022-09-12T08:52:34;4.80;;;4.40;;
44862;SDS011;30597;49.628;10.850;2022-09-12T08:55:24;4.00;;;3.70;;
44862;SDS011;30597;49.628;10.850;2022-09-12T08:57:55;3.83;;;3.53;;
44862;SDS011;30597;49.628;10.850;2022-09-12T09:00:22;4.57;;;4.17;;
44862;SDS011;30597;49.628;10.850;2022-09-12T09:02:58;4.40;;;4.10;;
44862;SDS011;30597;49.628;10.850;2022-09-12T09:08:18;4.13;;;3.80;;
44862;SDS011;30597;49.628;10.850;2022-09-12T09:16:48;4.10;;;3.80;;
44862;SDS011;30597;49.628;10.850;2022-09-12T09:19:17;4.70;;;4.30;;
44862;SDS011;30597;49.628;10.850;2022-09-12T09:21:45;4.47;;;4.17;;
44862;SDS011;30597;49.628;10.850;2022-09-12T09:24:25;4.10;;;3.80;;
44862;SDS011;30597;49.628;10.850;2022-09-12T09:27:01;3.83;;;3.53;;
44862;SDS011;30597;49.628;10.850;2022-09-12T09:29:42;4.57;;;4.17;;
44862;SDS011;30597;49.628;10.850;2022-09-12T09:32:26;4.80;;;4.40;;
44862;SDS011;30597;49.628;10.850;2022-09-12T09:34:55;3.93;;;3.63;;
44862;SDS011;30597;49.628;10.850;2022-09-12T09:37:25;3.77;;;3.47;;
44862;SDS011;30597;49.628;10.850;2022-09-12T09:43:15;4.80;;;4.40;;
44862;SDS011;30597;49.628;10.850;2022-09-12T09:45:51;4.00;;;3.70;;
44862;SDS011;30597;49.628;10.850;2022-09-12T09:48:26;4.60;;;4.20;;
44862;SDS011;30597;49.628;10.850;2022-09-12T09:50:56;4.40;;;4.10;;
44862;SDS011;30597;49.628;10.850;2022-09-12T09:53:26;4.90;;;4.03;;
44862;SDS011;30597;49.628;10.850;2022-09-12T09:56:00;3.83;;;3.53;;
44862;SDS011;30597;49.628;10.850;2022-09-12T10:00:59;3.80;;;3.50;;
44862;SDS011;30597;49.628;10.850;2022-09-12T10:03:29;4.37;;;4.07;;
44862;SDS011;30597;49.628;10.850;2022-09-12T10:06:24;4.47;;;4.07;;
44862;SDS011;30597;49.628;10.850;2022-09-12T10:11:39;4.00;;;3.70;;
44862;SDS011;30597;49.628;10.850;2022-09-12T10:14:21;3.53;;;3.33;;
44862;SDS011;30597;49.628;10.850;2022-09-12T10:16:50;3.73;;;3.33;;
44862;SDS011;30597;49.628;10.850;2022-09-12T10:19:21;3.13;;;2.93;;
44862;SDS011;30597;49.628;10.850;2022-09-12T10:21:52;4.33;;;3.93;;
44862;SDS011;30597;49.628;10.850;2022-09-12T10:26:50;3.50;;;3.30;;
44862;SDS011;30597;49.628;10.850;2022-09-12T10:29:28;4.33;;;4.03;;
44862;SDS011;30597;49.628;10.850;2022-09-12T10:31:58;3.70;;;3.50;;
44862;SDS011;30597;49.628;10.850;2022-09-12T10:34:28;3.90;;;3.60;;
44862;SDS011;30597;49.628;10.850;2022-09-12T10:37:03;4.03;;;3.73;;
44862;SDS011;30597;49.628;10.850;2022-09-12T10:39:31;4.13;;;3.83;;
44862;SDS011;30597;49.628;10.850;2022-09-12T10:41:59;3.93;;;3.63;;
44862;SDS011;30597;49.628;10.850;2022-09-12T10:44:25;3.83;;;3.53;;
44862;SDS011;30597;49.628;10.850;2022-09-12T10:46:54;4.30;;;3.90;;
44862;SDS011;30597;49.628;10.850;2022-09-12T10:49:22;3.97;;;3.67;;
44862;SDS011;30597;49.628;10.850;2022-09-12T10:51:50;4.40;;;4.10;;
44862;SDS011;30597;49.628;10.850;2022-09-12T10:54:18;3.93;;;3.63;;
44862;SDS011;30597;49.628;10.850;2022-09-12T11:02:22;4.43;;;4.13;;
44862;SDS011;30597;49.628;10.850;2022-09-12T11:25:06;3.80;;;3.50;;
44862;SDS011;30597;49.628;10.850;2022-09-12T11:27:47;3.30;;;3.00;;
44862;SDS011;30597;49.628;10.850;2022-09-12T11:30:26;3.90;;;3.53;;
44862;SDS011;30597;49.628;10.850;2022-09-12T11:35:37;4.60;;;4.20;;
44862;SDS011;30597;49.628;10.850;2022-09-12T11:40:59;3.30;;;3.10;;
44862;SDS011;30597;49.628;10.850;2022-09-12T11:51:36;3.43;;;3.17;;
44862;SDS011;30597;49.628;10.850;2022-09-12T11:54:29;4.27;;;3.87;;
44862;SDS011;30597;49.628;10.850;2022-09-12T11:59:55;3.83;;;3.30;;
44862;SDS011;30597;49.628;10.850;2022-09-12T12:02:29;4.33;;;3.93;;
44862;SDS011;30597;49.628;10.850;2022-09-12T12:07:50;3.83;;;3.53;;
44862;SDS011;30597;49.628;10.850;2022-09-12T12:10:34;3.57;;;3.27;;
44862;SDS011;30597;49.628;10.850;2022-09-12T12:13:06;4.40;;;4.00;;
44862;SDS011;30597;49.628;10.850;2022-09-12T12:15:44;4.00;;;3.43;;
44862;SDS011;30597;49.628;10.850;2022-09-12T12:18:18;4.17;;;3.87;;
44862;SDS011;30597;49.628;10.850;2022-09-12T12:20:52;3.73;;;3.43;;
44862;SDS011;30597;49.628;10.850;2022-09-12T12:23:26;3.83;;;3.53;;
44862;SDS011;30597;49.628;10.850;2022-09-12T12:25:56;3.70;;;3.40;;
44862;SDS011;30597;49.628;10.850;2022-09-12T12:31:14;3.33;;;3.10;;
44862;SDS011;30597;49.628;10.850;2022-09-12T12:36:31;3.50;;;3.20;;
44862;SDS011;30597;49.628;10.850;2022-09-12T12:38:58;4.10;;;3.80;;
44862;SDS011;30597;49.628;10.850;2022-09-12T12:41:44;3.47;;;3.20;;
44862;SDS011;30597;49.628;10.850;2022-09-12T12:49:41;3.60;;;3.30;;
44862;SDS011;30597;49.628;10.850;2022-09-12T12:52:16;3.50;;;3.20;;
44862;SDS011;30597;49.628;10.850;2022-09-12T12:59:44;3.43;;;3.17;;
44862;SDS011;30597;49.628;10.850;2022-09-12T13:02:22;3.37;;;3.07;;
44862;SDS011;30597;49.628;10.850;2022-09-12T13:04:51;3.07;;;2.87;;
44862;SDS011;30597;49.628;10.850;2022-09-12T13:07:24;3.30;;;3.00;;
44862;SDS011;30597;49.628;10.850;2022-09-12T13:09:58;2.90;;;2.70;;
44862;SDS011;30597;49.628;10.850;2022-09-12T13:12:26;3.53;;;3.03;;
44862;SDS011;30597;49.628;10.850;2022-09-12T13:14:55;3.80;;;3.50;;
44862;SDS011;30597;49.628;10.850;2022-09-12T13:22:41;2.57;;;2.37;;
44862;SDS011;30597;49.628;10.850;2022-09-12T13:27:57;3.00;;;2.80;;
44862;SDS011;30597;49.628;10.850;2022-09-12T13:30:33;3.67;;;3.37;;
44862;SDS011;30597;49.628;10.850;2022-09-12T13:33:17;4.00;;;3.23;;
44862;SDS011;30597;49.628;10.850;2022-09-12T13:38:56;2.70;;;2.50;;
44862;SDS011;30597;49.628;10.850;2022-09-12T13:41:38;2.70;;;2.50;;
44862;SDS011;30597;49.628;10.850;2022-09-12T13:44:20;3.20;;;3.00;;
44862;SDS011;30597;49.628;10.850;2022-09-12T13:46:47;3.10;;;2.80;;
44862;SDS011;30597;49.628;10.850;2022-09-12T13:52:02;3.80;;;3.50;;
44862;SDS011;30597;49.628;10.850;2022-09-12T13:54:30;2.97;;;2.77;;
44862;SDS011;30597;49.628;10.850;2022-09-12T13:56:58;3.10;;;2.90;;
44862;SDS011;30597;49.628;10.850;2022-09-12T13:59:24;3.93;;;3.63;;
44862;SDS011;30597;49.628;10.850;2022-09-12T14:01:49;3.10;;;2.80;;
44862;SDS011;30597;49.628;10.850;2022-09-12T14:04:16;2.70;;;2.50;;
44862;SDS011;30597;49.628;10.850;2022-09-12T14:07:16;3.33;;;3.03;;
44862;SDS011;30597;49.628;10.850;2022-09-12T14:09:57;3.50;;;3.20;;
44862;SDS011;30597;49.628;10.850;2022-09-12T14:12:24;3.13;;;2.83;;
44862;SDS011;30597;49.628;10.850;2022-09-12T14:14:54;3.17;;;2.90;;
44862;SDS011;30597;49.628;10.850;2022-09-12T14:17:24;3.13;;;2.83;;
44862;SDS011;30597;49.628;10.850;2022-09-12T14:19:59;3.50;;;3.20;;
44862;SDS011;30597;49.628;10.850;2022-09-12T14:22:27;3.43;;;3.13;;
44862;SDS011;30597;49.628;10.850;2022-09-12T14:24:54;3.10;;;2.90;;
44862;SDS011;30597;49.628;10.850;2022-09-12T14:27:23;3.33;;;3.03;;
44862;SDS011;30597;49.628;10.850;2022-09-12T14:29:55;2.80;;;2.60;;
44862;SDS011;30597;49.628;10.850;2022-09-12T14:32:31;2.97;;;2.77;;
44862;SDS011;30597;49.628;10.850;2022-09-12T14:37:43;2.80;;;2.60;;
44862;SDS011;30597;49.628;10.850;2022-09-12T14:40:17;3.00;;;2.80;;
44862;SDS011;30597;49.628;10.850;2022-09-12T14:42:44;2.93;;;2.73;;
44862;SDS011;30597;49.628;10.850;2022-09-12T14:45:15;3.20;;;3.00;;
44862;SDS011;30597;49.628;10.850;2022-09-12T14:47:48;3.33;;;2.80;;
44862;SDS011;30597;49.628;10.850;2022-09-12T14:50:15;3.00;;;2.70;;
44862;SDS011;30597;49.628;10.850;2022-09-12T14:52:43;2.80;;;2.60;;
44862;SDS011;30597;49.628;10.850;2022-09-12T14:57:41;3.10;;;2.80;;
44862;SDS011;30597;49.628;10.850;2022-09-12T15:02:36;2.83;;;2.63;;
44862;SDS011;30597;49.628;10.850;2022-09-12T15:09:54;3.63;;;3.33;;
44862;SDS011;30597;49.628;10.850;2022-09-12T15:12:20;3.00;;;2.80;;
44862;SDS011;30597;49.628;10.850;2022-09-12T15:14:47;2.97;;;2.73;;
44862;SDS011;30597;49.628;10.850;2022-09-12T15:17:12;3.23;;;3.03;;
44862;SDS011;30597;49.628;10.850;2022-09-12T15:19:38;3.20;;;3.00;;
44862;SDS011;30597;49.628;10.850;2022-09-12T15:22:03;3.00;;;2.80;;
44862;SDS011;30597;49.628;10.850;2022-09-12T15:24:29;3.47;;;3.17;;
44862;SDS011;30597;49.628;10.850;2022-09-12T15:26:54;2.90;;;2.70;;
44862;SDS011;30597;49.628;10.850;2022-09-12T15:29:20;2.60;;;2.40;;
44862;SDS011;30597;49.628;10.850;2022-09-12T15:31:46;3.10;;;2.90;;
44862;SDS011;30597;49.628;10.850;2022-09-12T15:34:14;2.80;;;2.60;;
44862;SDS011;30597;49.628;10.850;2022-09-12T15:36:40;2.53;;;2.33;;
44862;SDS011;30597;49.628;10.850;2022-09-12T15:39:06;2.70;;;2.50;;
44862;SDS011;30597;49.628;10.850;2022-09-12T15:41:33;3.30;;;3.10;;
44862;SDS011;30597;49.628;10.850;2022-09-12T15:44:04;3.10;;;2.90;;
44862;SDS011;30597;49.628;10.850;2022-09-12T15:46:32;3.33;;;3.03;;
44862;SDS011;30597;49.628;10.850;2022-09-12T15:49:05;3.40;;;3.10;;
44862;SDS011;30597;49.628;10.850;2022-09-12T15:51:31;2.60;;;2.40;;
44862;SDS011;30597;49.628;10.850;2022-09-12T15:53:57;3.00;;;2.80;;
44862;SDS011;30597;49.628;10.850;2022-09-12T15:56:24;2.87;;;2.67;;
44862;SDS011;30597;49.628;10.850;2022-09-12T15:58:50;2.70;;;2.50;;
44862;SDS011;30597;49.628;10.850;2022-09-12T16:01:16;3.20;;;2.90;;
44862;SDS011;30597;49.628;10.850;2022-09-12T16:03:42;2.93;;;2.73;;
44862;SDS011;30597;49.628;10.850;2022-09-12T16:06:10;2.90;;;2.60;;
44862;SDS011;30597;49.628;10.850;2022-09-12T16:08:36;3.30;;;3.00;;
44862;SDS011;30597;49.628;10.850;2022-09-12T16:11:13;2.50;;;2.37;;
44862;SDS011;30597;49.628;10.850;2022-09-12T16:13:43;2.60;;;2.40;;
44862;SDS011;30597;49.628;10.850;2022-09-12T16:16:09;2.97;;;2.77;;
44862;SDS011;30597;49.628;10.850;2022-09-12T16:18:34;3.10;;;2.80;;
44862;SDS011;30597;49.628;10.850;2022-09-12T16:21:02;2.60;;;2.40;;
44862;SDS011;30597;49.628;10.850;2022-09-12T16:23:28;3.53;;;2.97;;
44862;SDS011;30597;49.628;10.850;2022-09-12T16:25:57;2.40;;;2.20;;
44862;SDS011;30597;49.628;10.850;2022-09-12T16:28:23;2.80;;;2.60;;
44862;SDS011;30597;49.628;10.850;2022-09-12T16:30:56;3.10;;;2.90;;
44862;SDS011;30597;49.628;10.850;2022-09-12T16:33:22;2.93;;;2.70;;
44862;SDS011;30597;49.628;10.850;2022-09-12T16:35:48;3.10;;;2.90;;
44862;SDS011;30597;49.628;10.850;2022-09-12T16:38:15;2.80;;;2.60;;
44862;SDS011;30597;49.628;10.850;2022-09-12T16:40:43;2.93;;;2.73;;
44862;SDS011;30597;49.628;10.850;2022-09-12T16:43:09;2.70;;;2.50;;
44862;SDS011;30597;49.628;10.850;2022-09-12T16:45:34;2.87;;;2.67;;
44862;SDS011;30597;49.628;10.850;2022-09-12T16:48:00;2.60;;;2.40;;
44862;SDS011;30597;49.628;10.850;2022-09-12T16:50:25;2.77;;;2.57;;
44862;SDS011;30597;49.628;10.850;2022-09-12T16:52:53;2.60;;;2.40;;
44862;SDS011;30597;49.628;10.850;2022-09-12T16:55:18;2.90;;;2.70;;
44862;SDS011;30597;49.628;10.850;2022-09-12T16:57:44;2.50;;;2.30;;
44862;SDS011;30597;49.628;10.850;2022-09-12T17:00:11;2.77;;;2.57;;
44862;SDS011;30597;49.628;10.850;2022-09-12T17:02:38;2.50;;;2.30;;
44862;SDS011;30597;49.628;10.850;2022-09-12T17:05:04;3.00;;;2.80;;
44862;SDS011;30597;49.628;10.850;2022-09-12T17:07:30;2.77;;;2.57;;
44862;SDS011;30597;49.628;10.850;2022-09-12T17:09:56;2.70;;;2.30;;